sensor_id;sensor_type;location;lat;lon;timestamp;P1;durP1;ratioP1;P2;durP2;ratioP2
23163;SDS011;31429;42.674;23.350;2023-10-19T00:00:57;33.45;;;28.15;;
23163;SDS011;31429;42.674;23.350;2023-10-19T00:02:00;31.92;;;27.33;;
23163;SDS011;31429;42.674;23.350;2023-10-19T00:03:00;29.63;;;26.40;;
23163;SDS011;31429;42.674;23.350;2023-10-19T00:04:02;33.08;;;27.33;;
23163;SDS011;31429;42.674;23.350;2023-10-19T00:05:04;32.47;;;28.70;;
23163;SDS011;31429;42.674;23.350;2023-10-19T00:06:09;31.17;;;27.80;;
23163;SDS011;31429;42.674;23.350;2023-10-19T00:07:11;31.88;;;28.10;;
23163;SDS011;31429;42.674;23.350;2023-10-19T00:08:15;29.88;;;26.67;;
23163;SDS011;31429;42.674;23.350;2023-10-19T00:09:23;30.00;;;26.70;;
23163;SDS011;31429;42.674;23.350;2023-10-19T00:10:27;32.35;;;27.23;;
23163;SDS011;31429;42.674;23.350;2023-10-19T00:11:33;33.55;;;28.48;;
23163;SDS011;31429;42.674;23.350;2023-10-19T00:12:36;33.42;;;28.50;;
23163;SDS011;31429;42.674;23.350;2023-10-19T00:13:37;34.40;;;28.38;;
23163;SDS011;31429;42.674;23.350;2023-10-19T00:14:39;33.03;;;29.23;;
23163;SDS011;31429;42.674;23.350;2023-10-19T00:15:39;31.37;;;27.63;;
23163;SDS011;31429;42.674;23.350;2023-10-19T00:16:47;33.78;;;29.02;;
23163;SDS011;31429;42.674;23.350;2023-10-19T00:17:53;37.53;;;31.73;;
23163;SDS011;31429;42.674;23.350;2023-10-19T00:18:54;34.58;;;29.95;;
23163;SDS011;31429;42.674;23.350;2023-10-19T00:19:59;35.30;;;29.25;;
23163;SDS011;31429;42.674;23.350;2023-10-19T00:21:20;34.25;;;29.10;;
23163;SDS011;31429;42.674;23.350;2023-10-19T00:22:23;33.17;;;27.95;;
23163;SDS011;31429;42.674;23.350;2023-10-19T00:23:24;30.38;;;25.67;;
23163;SDS011;31429;42.674;23.350;2023-10-19T00:24:32;30.60;;;27.23;;
23163;SDS011;31429;42.674;23.350;2023-10-19T00:25:34;30.73;;;26.00;;
23163;SDS011;31429;42.674;23.350;2023-10-19T00:26:34;29.77;;;25.98;;
23163;SDS011;31429;42.674;23.350;2023-10-19T00:27:35;30.47;;;25.67;;
23163;SDS011;31429;42.674;23.350;2023-10-19T00:28:36;29.87;;;26.60;;
23163;SDS011;31429;42.674;23.350;2023-10-19T00:29:38;30.27;;;26.40;;
23163;SDS011;31429;42.674;23.350;2023-10-19T00:30:48;30.88;;;26.65;;
23163;SDS011;31429;42.674;23.350;2023-10-19T00:31:52;32.22;;;27.02;;
23163;SDS011;31429;42.674;23.350;2023-10-19T00:32:52;30.17;;;26.17;;
23163;SDS011;31429;42.674;23.350;2023-10-19T00:33:54;33.58;;;27.50;;
23163;SDS011;31429;42.674;23.350;2023-10-19T00:34:55;31.00;;;27.60;;
23163;SDS011;31429;42.674;23.350;2023-10-19T00:35:58;29.90;;;26.73;;
23163;SDS011;31429;42.674;23.350;2023-10-19T00:37:06;30.60;;;27.15;;
23163;SDS011;31429;42.674;23.350;2023-10-19T00:38:10;29.50;;;25.80;;
23163;SDS011;31429;42.674;23.350;2023-10-19T00:39:37;29.48;;;25.30;;
23163;SDS011;31429;42.674;23.350;2023-10-19T00:40:45;31.77;;;25.80;;
23163;SDS011;31429;42.674;23.350;2023-10-19T00:41:50;27.95;;;25.00;;
23163;SDS011;31429;42.674;23.350;2023-10-19T00:42:55;28.80;;;24.88;;
23163;SDS011;31429;42.674;23.350;2023-10-19T00:43:57;28.80;;;25.67;;
23163;SDS011;31429;42.674;23.350;2023-10-19T00:45:03;31.55;;;26.45;;
23163;SDS011;31429;42.674;23.350;2023-10-19T00:46:05;30.95;;;25.42;;
23163;SDS011;31429;42.674;23.350;2023-10-19T00:47:15;29.30;;;26.02;;
23163;SDS011;31429;42.674;23.350;2023-10-19T00:48:19;29.02;;;25.92;;
23163;SDS011;31429;42.674;23.350;2023-10-19T00:49:23;27.98;;;24.50;;
23163;SDS011;31429;42.674;23.350;2023-10-19T00:50:24;29.70;;;25.83;;
23163;SDS011;31429;42.674;23.350;2023-10-19T00:51:28;28.15;;;25.15;;
23163;SDS011;31429;42.674;23.350;2023-10-19T00:52:52;27.80;;;24.90;;
23163;SDS011;31429;42.674;23.350;2023-10-19T00:53:53;29.17;;;24.70;;
23163;SDS011;31429;42.674;23.350;2023-10-19T00:54:54;26.25;;;23.38;;
23163;SDS011;31429;42.674;23.350;2023-10-19T00:56:00;28.63;;;23.88;;
23163;SDS011;31429;42.674;23.350;2023-10-19T00:57:05;27.08;;;24.25;;
23163;SDS011;31429;42.674;23.350;2023-10-19T00:58:08;29.23;;;24.45;;
23163;SDS011;31429;42.674;23.350;2023-10-19T00:59:09;27.52;;;24.30;;
23163;SDS011;31429;42.674;23.350;2023-10-19T01:00:15;29.88;;;23.08;;
23163;SDS011;31429;42.674;23.350;2023-10-19T01:01:42;27.52;;;24.48;;
23163;SDS011;31429;42.674;23.350;2023-10-19T01:03:37;26.92;;;24.02;;
23163;SDS011;31429;42.674;23.350;2023-10-19T01:04:38;29.83;;;26.63;;
23163;SDS011;31429;42.674;23.350;2023-10-19T01:05:59;30.83;;;27.38;;
23163;SDS011;31429;42.674;23.350;2023-10-19T01:07:19;28.13;;;25.05;;
23163;SDS011;31429;42.674;23.350;2023-10-19T01:08:27;29.45;;;25.48;;
23163;SDS011;31429;42.674;23.350;2023-10-19T01:09:33;30.15;;;25.80;;
23163;SDS011;31429;42.674;23.350;2023-10-19T01:10:35;30.88;;;25.48;;
23163;SDS011;31429;42.674;23.350;2023-10-19T01:11:38;28.38;;;25.15;;
23163;SDS011;31429;42.674;23.350;2023-10-19T01:12:38;28.92;;;25.83;;
23163;SDS011;31429;42.674;23.350;2023-10-19T01:13:39;30.50;;;26.37;;
23163;SDS011;31429;42.674;23.350;2023-10-19T01:15:07;30.90;;;26.30;;
23163;SDS011;31429;42.674;23.350;2023-10-19T01:16:17;30.10;;;26.25;;
23163;SDS011;31429;42.674;23.350;2023-10-19T01:17:21;31.88;;;26.27;;
23163;SDS011;31429;42.674;23.350;2023-10-19T01:18:41;28.25;;;25.23;;
23163;SDS011;31429;42.674;23.350;2023-10-19T01:20:02;30.23;;;25.55;;
23163;SDS011;31429;42.674;23.350;2023-10-19T01:21:23;28.73;;;25.67;;
23163;SDS011;31429;42.674;23.350;2023-10-19T01:23:06;27.17;;;23.85;;
23163;SDS011;31429;42.674;23.350;2023-10-19T01:24:26;28.10;;;25.08;;
23163;SDS011;31429;42.674;23.350;2023-10-19T01:25:50;28.10;;;25.02;;
23163;SDS011;31429;42.674;23.350;2023-10-19T01:26:51;30.60;;;25.25;;
23163;SDS011;31429;42.674;23.350;2023-10-19T01:28:12;27.58;;;24.27;;
23163;SDS011;31429;42.674;23.350;2023-10-19T01:29:17;27.80;;;24.75;;
23163;SDS011;31429;42.674;23.350;2023-10-19T01:30:18;27.27;;;24.27;;
23163;SDS011;31429;42.674;23.350;2023-10-19T01:31:19;28.02;;;24.67;;
23163;SDS011;31429;42.674;23.350;2023-10-19T01:32:30;30.45;;;26.23;;
23163;SDS011;31429;42.674;23.350;2023-10-19T01:33:30;28.37;;;25.30;;
23163;SDS011;31429;42.674;23.350;2023-10-19T01:34:31;28.20;;;24.53;;
23163;SDS011;31429;42.674;23.350;2023-10-19T01:35:33;29.67;;;25.83;;
23163;SDS011;31429;42.674;23.350;2023-10-19T01:36:52;27.50;;;23.95;;
23163;SDS011;31429;42.674;23.350;2023-10-19T01:37:55;26.55;;;23.30;;
23163;SDS011;31429;42.674;23.350;2023-10-19T01:38:57;28.37;;;25.27;;
23163;SDS011;31429;42.674;23.350;2023-10-19T01:40:01;29.40;;;25.90;;
23163;SDS011;31429;42.674;23.350;2023-10-19T01:41:02;29.03;;;24.73;;
23163;SDS011;31429;42.674;23.350;2023-10-19T01:42:13;28.65;;;25.63;;
23163;SDS011;31429;42.674;23.350;2023-10-19T01:43:14;29.40;;;24.83;;
23163;SDS011;31429;42.674;23.350;2023-10-19T01:44:21;30.42;;;25.67;;
23163;SDS011;31429;42.674;23.350;2023-10-19T01:45:22;30.00;;;26.73;;
23163;SDS011;31429;42.674;23.350;2023-10-19T01:46:23;31.87;;;26.43;;
23163;SDS011;31429;42.674;23.350;2023-10-19T01:47:32;32.42;;;27.10;;
23163;SDS011;31429;42.674;23.350;2023-10-19T01:48:32;29.57;;;25.83;;
23163;SDS011;31429;42.674;23.350;2023-10-19T01:49:53;29.20;;;25.30;;
23163;SDS011;31429;42.674;23.350;2023-10-19T01:50:54;30.57;;;26.27;;
23163;SDS011;31429;42.674;23.350;2023-10-19T01:51:54;31.87;;;26.57;;
23163;SDS011;31429;42.674;23.350;2023-10-19T01:52:55;30.60;;;26.10;;
23163;SDS011;31429;42.674;23.350;2023-10-19T01:53:57;28.30;;;25.23;;
23163;SDS011;31429;42.674;23.350;2023-10-19T01:55:18;28.27;;;25.00;;
23163;SDS011;31429;42.674;23.350;2023-10-19T01:56:39;31.27;;;26.42;;
23163;SDS011;31429;42.674;23.350;2023-10-19T01:58:00;29.52;;;26.25;;
23163;SDS011;31429;42.674;23.350;2023-10-19T01:59:01;28.87;;;25.50;;
23163;SDS011;31429;42.674;23.350;2023-10-19T02:00:04;27.35;;;24.55;;
23163;SDS011;31429;42.674;23.350;2023-10-19T02:01:25;29.83;;;25.85;;
23163;SDS011;31429;42.674;23.350;2023-10-19T02:02:26;29.23;;;26.03;;
23163;SDS011;31429;42.674;23.350;2023-10-19T02:03:26;26.90;;;24.00;;
23163;SDS011;31429;42.674;23.350;2023-10-19T02:04:50;28.85;;;24.63;;
23163;SDS011;31429;42.674;23.350;2023-10-19T02:05:57;27.83;;;24.25;;
23163;SDS011;31429;42.674;23.350;2023-10-19T02:06:59;28.42;;;25.20;;
23163;SDS011;31429;42.674;23.350;2023-10-19T02:08:01;29.08;;;26.02;;
23163;SDS011;31429;42.674;23.350;2023-10-19T02:09:03;28.53;;;25.23;;
23163;SDS011;31429;42.674;23.350;2023-10-19T02:10:17;28.27;;;24.50;;
23163;SDS011;31429;42.674;23.350;2023-10-19T02:11:19;29.05;;;25.45;;
23163;SDS011;31429;42.674;23.350;2023-10-19T02:12:40;27.73;;;24.73;;
23163;SDS011;31429;42.674;23.350;2023-10-19T02:14:00;27.45;;;24.52;;
23163;SDS011;31429;42.674;23.350;2023-10-19T02:15:08;28.60;;;25.52;;
23163;SDS011;31429;42.674;23.350;2023-10-19T02:16:09;31.33;;;26.47;;
23163;SDS011;31429;42.674;23.350;2023-10-19T02:17:10;28.13;;;24.43;;
23163;SDS011;31429;42.674;23.350;2023-10-19T02:18:30;31.30;;;24.88;;
23163;SDS011;31429;42.674;23.350;2023-10-19T02:19:51;28.13;;;24.67;;
23163;SDS011;31429;42.674;23.350;2023-10-19T02:20:53;28.85;;;23.75;;
23163;SDS011;31429;42.674;23.350;2023-10-19T02:21:54;26.57;;;23.77;;
23163;SDS011;31429;42.674;23.350;2023-10-19T02:22:57;26.55;;;23.10;;
23163;SDS011;31429;42.674;23.350;2023-10-19T02:23:58;27.03;;;22.90;;
23163;SDS011;31429;42.674;23.350;2023-10-19T02:25:00;27.57;;;23.27;;
23163;SDS011;31429;42.674;23.350;2023-10-19T02:26:01;25.92;;;23.15;;
23163;SDS011;31429;42.674;23.350;2023-10-19T02:27:22;25.08;;;22.27;;
23163;SDS011;31429;42.674;23.350;2023-10-19T02:28:22;25.93;;;23.23;;
23163;SDS011;31429;42.674;23.350;2023-10-19T02:29:43;25.67;;;22.95;;
23163;SDS011;31429;42.674;23.350;2023-10-19T02:31:04;25.75;;;23.08;;
23163;SDS011;31429;42.674;23.350;2023-10-19T02:32:27;25.42;;;22.73;;
23163;SDS011;31429;42.674;23.350;2023-10-19T02:33:28;25.98;;;22.30;;
23163;SDS011;31429;42.674;23.350;2023-10-19T02:34:30;28.08;;;23.67;;
23163;SDS011;31429;42.674;23.350;2023-10-19T02:35:31;27.47;;;23.87;;
23163;SDS011;31429;42.674;23.350;2023-10-19T02:36:32;26.70;;;22.98;;
23163;SDS011;31429;42.674;23.350;2023-10-19T02:37:33;25.67;;;22.88;;
23163;SDS011;31429;42.674;23.350;2023-10-19T02:38:34;26.20;;;23.43;;
23163;SDS011;31429;42.674;23.350;2023-10-19T02:39:35;26.95;;;24.05;;
23163;SDS011;31429;42.674;23.350;2023-10-19T02:40:38;24.03;;;21.53;;
23163;SDS011;31429;42.674;23.350;2023-10-19T02:41:39;25.40;;;22.77;;
23163;SDS011;31429;42.674;23.350;2023-10-19T02:42:41;25.27;;;22.33;;
23163;SDS011;31429;42.674;23.350;2023-10-19T02:43:47;26.17;;;22.10;;
23163;SDS011;31429;42.674;23.350;2023-10-19T02:44:51;25.73;;;22.92;;
23163;SDS011;31429;42.674;23.350;2023-10-19T02:45:52;25.93;;;23.13;;
23163;SDS011;31429;42.674;23.350;2023-10-19T02:46:54;25.65;;;22.95;;
23163;SDS011;31429;42.674;23.350;2023-10-19T02:48:08;25.95;;;23.15;;
23163;SDS011;31429;42.674;23.350;2023-10-19T02:49:29;25.75;;;22.30;;
23163;SDS011;31429;42.674;23.350;2023-10-19T02:50:50;26.13;;;23.33;;
23163;SDS011;31429;42.674;23.350;2023-10-19T02:51:51;26.17;;;23.47;;
23163;SDS011;31429;42.674;23.350;2023-10-19T02:53:32;26.38;;;23.52;;
23163;SDS011;31429;42.674;23.350;2023-10-19T02:54:33;28.77;;;23.65;;
23163;SDS011;31429;42.674;23.350;2023-10-19T02:55:55;26.02;;;22.92;;
23163;SDS011;31429;42.674;23.350;2023-10-19T02:56:56;25.95;;;23.23;;
23163;SDS011;31429;42.674;23.350;2023-10-19T02:57:59;26.60;;;23.88;;
23163;SDS011;31429;42.674;23.350;2023-10-19T02:59:00;27.33;;;24.27;;
23163;SDS011;31429;42.674;23.350;2023-10-19T03:00:26;27.23;;;24.42;;
23163;SDS011;31429;42.674;23.350;2023-10-19T03:01:47;28.15;;;24.50;;
23163;SDS011;31429;42.674;23.350;2023-10-19T03:02:48;28.50;;;25.17;;
23163;SDS011;31429;42.674;23.350;2023-10-19T03:04:08;27.58;;;23.98;;
23163;SDS011;31429;42.674;23.350;2023-10-19T03:05:09;27.87;;;24.90;;
23163;SDS011;31429;42.674;23.350;2023-10-19T03:06:32;27.55;;;24.13;;
23163;SDS011;31429;42.674;23.350;2023-10-19T03:07:53;27.70;;;24.40;;
23163;SDS011;31429;42.674;23.350;2023-10-19T03:08:54;27.77;;;24.43;;
23163;SDS011;31429;42.674;23.350;2023-10-19T03:10:13;28.42;;;25.48;;
23163;SDS011;31429;42.674;23.350;2023-10-19T03:11:47;28.13;;;24.65;;
23163;SDS011;31429;42.674;23.350;2023-10-19T03:13:08;27.50;;;23.88;;
23163;SDS011;31429;42.674;23.350;2023-10-19T03:14:08;28.67;;;25.53;;
23163;SDS011;31429;42.674;23.350;2023-10-19T03:15:29;21.33;;;19.02;;
23163;SDS011;31429;42.674;23.350;2023-10-19T03:16:50;28.23;;;25.20;;
23163;SDS011;31429;42.674;23.350;2023-10-19T03:17:51;29.47;;;25.90;;
23163;SDS011;31429;42.674;23.350;2023-10-19T03:18:51;29.30;;;25.13;;
23163;SDS011;31429;42.674;23.350;2023-10-19T03:19:52;28.53;;;25.43;;
23163;SDS011;31429;42.674;23.350;2023-10-19T03:20:53;28.60;;;25.50;;
23163;SDS011;31429;42.674;23.350;2023-10-19T03:21:53;28.40;;;25.50;;
23163;SDS011;31429;42.674;23.350;2023-10-19T03:23:14;30.02;;;25.90;;
23163;SDS011;31429;42.674;23.350;2023-10-19T03:24:35;29.30;;;25.10;;
23163;SDS011;31429;42.674;23.350;2023-10-19T03:25:36;28.80;;;24.57;;
23163;SDS011;31429;42.674;23.350;2023-10-19T03:26:58;28.30;;;25.17;;
23163;SDS011;31429;42.674;23.350;2023-10-19T03:28:19;31.90;;;25.83;;
23163;SDS011;31429;42.674;23.350;2023-10-19T03:29:19;27.77;;;24.87;;
23163;SDS011;31429;42.674;23.350;2023-10-19T03:30:43;29.63;;;25.27;;
23163;SDS011;31429;42.674;23.350;2023-10-19T03:31:43;29.77;;;25.57;;
23163;SDS011;31429;42.674;23.350;2023-10-19T03:33:04;31.50;;;26.00;;
23163;SDS011;31429;42.674;23.350;2023-10-19T03:34:05;30.25;;;26.20;;
23163;SDS011;31429;42.674;23.350;2023-10-19T03:35:25;29.08;;;25.88;;
23163;SDS011;31429;42.674;23.350;2023-10-19T03:36:46;29.77;;;25.25;;
23163;SDS011;31429;42.674;23.350;2023-10-19T03:37:47;29.60;;;26.40;;
23163;SDS011;31429;42.674;23.350;2023-10-19T03:39:07;31.83;;;26.98;;
23163;SDS011;31429;42.674;23.350;2023-10-19T03:40:12;37.03;;;32.78;;
23163;SDS011;31429;42.674;23.350;2023-10-19T03:41:33;39.03;;;32.72;;
23163;SDS011;31429;42.674;23.350;2023-10-19T03:42:55;54.15;;;45.03;;
23163;SDS011;31429;42.674;23.350;2023-10-19T03:43:56;124.60;;;96.15;;
23163;SDS011;31429;42.674;23.350;2023-10-19T03:45:16;33.30;;;29.70;;
23163;SDS011;31429;42.674;23.350;2023-10-19T03:46:17;31.07;;;27.67;;
23163;SDS011;31429;42.674;23.350;2023-10-19T03:47:50;36.28;;;32.30;;
23163;SDS011;31429;42.674;23.350;2023-10-19T03:48:54;40.45;;;34.13;;
23163;SDS011;31429;42.674;23.350;2023-10-19T03:50:16;64.05;;;51.60;;
23163;SDS011;31429;42.674;23.350;2023-10-19T03:51:36;30.98;;;26.70;;
23163;SDS011;31429;42.674;23.350;2023-10-19T03:52:40;34.28;;;28.27;;
23163;SDS011;31429;42.674;23.350;2023-10-19T03:53:41;32.77;;;28.47;;
23163;SDS011;31429;42.674;23.350;2023-10-19T03:55:02;36.00;;;31.02;;
23163;SDS011;31429;42.674;23.350;2023-10-19T03:56:22;49.28;;;39.90;;
23163;SDS011;31429;42.674;23.350;2023-10-19T03:57:24;48.55;;;37.95;;
23163;SDS011;31429;42.674;23.350;2023-10-19T03:58:46;38.22;;;32.83;;
23163;SDS011;31429;42.674;23.350;2023-10-19T04:00:07;37.97;;;30.25;;
23163;SDS011;31429;42.674;23.350;2023-10-19T04:01:31;35.58;;;31.67;;
23163;SDS011;31429;42.674;23.350;2023-10-19T04:02:32;36.03;;;31.53;;
23163;SDS011;31429;42.674;23.350;2023-10-19T04:03:35;34.88;;;28.85;;
23163;SDS011;31429;42.674;23.350;2023-10-19T04:04:36;31.00;;;26.63;;
23163;SDS011;31429;42.674;23.350;2023-10-19T04:05:39;29.92;;;26.73;;
23163;SDS011;31429;42.674;23.350;2023-10-19T04:06:41;37.50;;;31.13;;
23163;SDS011;31429;42.674;23.350;2023-10-19T04:08:02;34.85;;;29.30;;
23163;SDS011;31429;42.674;23.350;2023-10-19T04:09:23;46.53;;;36.45;;
23163;SDS011;31429;42.674;23.350;2023-10-19T04:10:44;35.97;;;29.70;;
23163;SDS011;31429;42.674;23.350;2023-10-19T04:11:44;44.07;;;37.50;;
23163;SDS011;31429;42.674;23.350;2023-10-19T04:13:05;48.90;;;41.35;;
23163;SDS011;31429;42.674;23.350;2023-10-19T04:14:27;30.90;;;27.60;;
23163;SDS011;31429;42.674;23.350;2023-10-19T04:15:48;33.55;;;26.92;;
23163;SDS011;31429;42.674;23.350;2023-10-19T04:17:08;28.63;;;25.50;;
23163;SDS011;31429;42.674;23.350;2023-10-19T04:18:12;39.97;;;34.10;;
23163;SDS011;31429;42.674;23.350;2023-10-19T04:19:13;40.27;;;35.03;;
23163;SDS011;31429;42.674;23.350;2023-10-19T04:20:17;32.42;;;28.88;;
23163;SDS011;31429;42.674;23.350;2023-10-19T04:21:19;40.90;;;34.85;;
23163;SDS011;31429;42.674;23.350;2023-10-19T04:22:19;44.13;;;34.97;;
23163;SDS011;31429;42.674;23.350;2023-10-19T04:23:42;46.25;;;39.67;;
23163;SDS011;31429;42.674;23.350;2023-10-19T04:24:43;50.37;;;41.47;;
23163;SDS011;31429;42.674;23.350;2023-10-19T04:25:44;53.33;;;43.40;;
23163;SDS011;31429;42.674;23.350;2023-10-19T04:26:47;42.60;;;36.58;;
23163;SDS011;31429;42.674;23.350;2023-10-19T04:28:08;48.83;;;40.20;;
23163;SDS011;31429;42.674;23.350;2023-10-19T04:29:30;49.42;;;41.95;;
23163;SDS011;31429;42.674;23.350;2023-10-19T04:30:50;50.17;;;41.08;;
23163;SDS011;31429;42.674;23.350;2023-10-19T04:31:51;53.40;;;44.07;;
23163;SDS011;31429;42.674;23.350;2023-10-19T04:32:54;45.00;;;37.65;;
23163;SDS011;31429;42.674;23.350;2023-10-19T04:33:58;56.13;;;43.30;;
23163;SDS011;31429;42.674;23.350;2023-10-19T04:34:58;48.97;;;39.80;;
23163;SDS011;31429;42.674;23.350;2023-10-19T04:35:59;54.60;;;45.40;;
23163;SDS011;31429;42.674;23.350;2023-10-19T04:37:20;49.25;;;42.15;;
23163;SDS011;31429;42.674;23.350;2023-10-19T04:38:24;40.63;;;35.00;;
23163;SDS011;31429;42.674;23.350;2023-10-19T04:39:24;33.47;;;28.50;;
23163;SDS011;31429;42.674;23.350;2023-10-19T04:40:25;43.23;;;34.40;;
23163;SDS011;31429;42.674;23.350;2023-10-19T04:41:28;34.15;;;29.65;;
23163;SDS011;31429;42.674;23.350;2023-10-19T04:42:29;46.37;;;37.10;;
23163;SDS011;31429;42.674;23.350;2023-10-19T04:43:30;38.57;;;31.67;;
23163;SDS011;31429;42.674;23.350;2023-10-19T04:44:32;37.90;;;31.90;;
23163;SDS011;31429;42.674;23.350;2023-10-19T04:45:53;34.08;;;28.23;;
23163;SDS011;31429;42.674;23.350;2023-10-19T04:46:53;45.40;;;35.97;;
23163;SDS011;31429;42.674;23.350;2023-10-19T04:47:54;40.20;;;32.77;;
23163;SDS011;31429;42.674;23.350;2023-10-19T04:48:55;40.80;;;34.43;;
23163;SDS011;31429;42.674;23.350;2023-10-19T04:49:55;41.60;;;34.27;;
23163;SDS011;31429;42.674;23.350;2023-10-19T04:50:56;41.70;;;31.97;;
23163;SDS011;31429;42.674;23.350;2023-10-19T04:51:57;42.70;;;33.87;;
23163;SDS011;31429;42.674;23.350;2023-10-19T04:52:57;38.40;;;34.00;;
23163;SDS011;31429;42.674;23.350;2023-10-19T04:53:58;41.38;;;35.13;;
23163;SDS011;31429;42.674;23.350;2023-10-19T04:54:59;44.77;;;33.67;;
23163;SDS011;31429;42.674;23.350;2023-10-19T04:56:01;34.15;;;28.45;;
23163;SDS011;31429;42.674;23.350;2023-10-19T04:57:03;42.30;;;34.13;;
23163;SDS011;31429;42.674;23.350;2023-10-19T04:58:05;41.83;;;32.90;;
23163;SDS011;31429;42.674;23.350;2023-10-19T04:59:06;38.20;;;31.48;;
23163;SDS011;31429;42.674;23.350;2023-10-19T05:00:08;39.50;;;31.67;;
23163;SDS011;31429;42.674;23.350;2023-10-19T05:01:13;40.78;;;33.67;;
23163;SDS011;31429;42.674;23.350;2023-10-19T05:02:15;36.35;;;30.98;;
23163;SDS011;31429;42.674;23.350;2023-10-19T05:03:16;41.90;;;34.00;;
23163;SDS011;31429;42.674;23.350;2023-10-19T05:04:18;47.72;;;35.90;;
23163;SDS011;31429;42.674;23.350;2023-10-19T05:05:20;46.50;;;35.63;;
23163;SDS011;31429;42.674;23.350;2023-10-19T05:06:21;38.87;;;31.87;;
23163;SDS011;31429;42.674;23.350;2023-10-19T05:07:25;40.33;;;32.88;;
23163;SDS011;31429;42.674;23.350;2023-10-19T05:08:26;36.53;;;31.75;;
23163;SDS011;31429;42.674;23.350;2023-10-19T05:09:28;37.70;;;31.83;;
23163;SDS011;31429;42.674;23.350;2023-10-19T05:10:29;39.70;;;32.10;;
23163;SDS011;31429;42.674;23.350;2023-10-19T05:11:29;42.05;;;32.28;;
23163;SDS011;31429;42.674;23.350;2023-10-19T05:12:30;37.07;;;28.47;;
23163;SDS011;31429;42.674;23.350;2023-10-19T05:13:31;35.13;;;28.97;;
23163;SDS011;31429;42.674;23.350;2023-10-19T05:14:33;36.40;;;30.55;;
23163;SDS011;31429;42.674;23.350;2023-10-19T05:15:37;38.50;;;30.40;;
23163;SDS011;31429;42.674;23.350;2023-10-19T05:16:38;36.40;;;30.10;;
23163;SDS011;31429;42.674;23.350;2023-10-19T05:17:39;36.03;;;30.10;;
23163;SDS011;31429;42.674;23.350;2023-10-19T05:18:40;35.73;;;31.07;;
23163;SDS011;31429;42.674;23.350;2023-10-19T05:19:40;37.50;;;30.47;;
23163;SDS011;31429;42.674;23.350;2023-10-19T05:20:41;37.57;;;29.87;;
23163;SDS011;31429;42.674;23.350;2023-10-19T05:21:42;38.30;;;30.93;;
23163;SDS011;31429;42.674;23.350;2023-10-19T05:23:02;34.38;;;28.70;;
23163;SDS011;31429;42.674;23.350;2023-10-19T05:24:23;34.03;;;28.80;;
23163;SDS011;31429;42.674;23.350;2023-10-19T05:25:24;40.90;;;29.50;;
23163;SDS011;31429;42.674;23.350;2023-10-19T05:26:24;36.37;;;31.53;;
23163;SDS011;31429;42.674;23.350;2023-10-19T05:27:45;32.15;;;23.90;;
23163;SDS011;31429;42.674;23.350;2023-10-19T05:28:46;37.90;;;30.50;;
23163;SDS011;31429;42.674;23.350;2023-10-19T05:30:07;45.40;;;36.78;;
23163;SDS011;31429;42.674;23.350;2023-10-19T05:31:29;36.70;;;29.42;;
23163;SDS011;31429;42.674;23.350;2023-10-19T05:32:31;43.45;;;35.10;;
23163;SDS011;31429;42.674;23.350;2023-10-19T05:33:33;36.53;;;29.25;;
23163;SDS011;31429;42.674;23.350;2023-10-19T05:34:34;37.83;;;29.83;;
23163;SDS011;31429;42.674;23.350;2023-10-19T05:35:54;40.78;;;28.85;;
23163;SDS011;31429;42.674;23.350;2023-10-19T05:36:55;56.27;;;44.43;;
23163;SDS011;31429;42.674;23.350;2023-10-19T05:38:16;58.40;;;46.22;;
23163;SDS011;31429;42.674;23.350;2023-10-19T05:39:17;79.63;;;59.17;;
23163;SDS011;31429;42.674;23.350;2023-10-19T05:40:18;185.27;;;138.37;;
23163;SDS011;31429;42.674;23.350;2023-10-19T05:41:38;143.00;;;106.68;;
23163;SDS011;31429;42.674;23.350;2023-10-19T05:42:59;112.15;;;85.28;;
23163;SDS011;31429;42.674;23.350;2023-10-19T05:44:02;86.28;;;63.42;;
23163;SDS011;31429;42.674;23.350;2023-10-19T05:45:22;77.40;;;56.80;;
23163;SDS011;31429;42.674;23.350;2023-10-19T05:46:23;163.48;;;121.95;;
23163;SDS011;31429;42.674;23.350;2023-10-19T05:47:45;96.97;;;73.03;;
23163;SDS011;31429;42.674;23.350;2023-10-19T05:48:46;185.63;;;135.60;;
23163;SDS011;31429;42.674;23.350;2023-10-19T05:49:47;195.70;;;143.90;;
23163;SDS011;31429;42.674;23.350;2023-10-19T05:50:47;286.80;;;214.23;;
23163;SDS011;31429;42.674;23.350;2023-10-19T05:52:08;185.15;;;135.80;;
23163;SDS011;31429;42.674;23.350;2023-10-19T05:53:09;179.83;;;127.97;;
23163;SDS011;31429;42.674;23.350;2023-10-19T05:54:09;260.17;;;191.93;;
23163;SDS011;31429;42.674;23.350;2023-10-19T05:55:10;63.40;;;46.00;;
23163;SDS011;31429;42.674;23.350;2023-10-19T05:56:11;106.00;;;77.53;;
23163;SDS011;31429;42.674;23.350;2023-10-19T05:57:12;224.73;;;161.37;;
23163;SDS011;31429;42.674;23.350;2023-10-19T05:58:12;418.10;;;311.10;;
23163;SDS011;31429;42.674;23.350;2023-10-19T05:59:13;390.97;;;293.67;;
23163;SDS011;31429;42.674;23.350;2023-10-19T06:00:34;114.28;;;85.80;;
23163;SDS011;31429;42.674;23.350;2023-10-19T06:01:35;262.50;;;194.07;;
23163;SDS011;31429;42.674;23.350;2023-10-19T06:02:36;206.80;;;149.60;;
23163;SDS011;31429;42.674;23.350;2023-10-19T06:03:38;298.17;;;219.13;;
23163;SDS011;31429;42.674;23.350;2023-10-19T06:04:39;147.98;;;104.93;;
23163;SDS011;31429;42.674;23.350;2023-10-19T06:05:39;140.47;;;97.53;;
23163;SDS011;31429;42.674;23.350;2023-10-19T06:06:40;222.43;;;163.57;;
23163;SDS011;31429;42.674;23.350;2023-10-19T06:07:41;139.37;;;105.33;;
23163;SDS011;31429;42.674;23.350;2023-10-19T06:08:42;53.77;;;41.27;;
23163;SDS011;31429;42.674;23.350;2023-10-19T06:09:42;78.63;;;56.30;;
23163;SDS011;31429;42.674;23.350;2023-10-19T06:10:43;54.03;;;39.57;;
23163;SDS011;31429;42.674;23.350;2023-10-19T06:11:50;66.82;;;49.25;;
23163;SDS011;31429;42.674;23.350;2023-10-19T06:12:51;58.87;;;44.10;;
23163;SDS011;31429;42.674;23.350;2023-10-19T06:13:52;67.80;;;50.88;;
23163;SDS011;31429;42.674;23.350;2023-10-19T06:14:53;62.20;;;46.43;;
23163;SDS011;31429;42.674;23.350;2023-10-19T06:15:53;38.27;;;33.40;;
23163;SDS011;31429;42.674;23.350;2023-10-19T06:16:54;46.73;;;36.43;;
23163;SDS011;31429;42.674;23.350;2023-10-19T06:18:19;57.28;;;46.42;;
23163;SDS011;31429;42.674;23.350;2023-10-19T06:19:21;45.90;;;35.90;;
23163;SDS011;31429;42.674;23.350;2023-10-19T06:20:22;55.30;;;43.38;;
23163;SDS011;31429;42.674;23.350;2023-10-19T06:21:29;53.40;;;43.80;;
23163;SDS011;31429;42.674;23.350;2023-10-19T06:22:49;55.80;;;40.05;;
23163;SDS011;31429;42.674;23.350;2023-10-19T06:23:51;44.97;;;37.63;;
23163;SDS011;31429;42.674;23.350;2023-10-19T06:25:12;50.00;;;39.15;;
23163;SDS011;31429;42.674;23.350;2023-10-19T06:26:33;33.35;;;24.70;;
23163;SDS011;31429;42.674;23.350;2023-10-19T06:27:33;32.27;;;26.90;;
23163;SDS011;31429;42.674;23.350;2023-10-19T06:28:34;43.13;;;33.67;;
23163;SDS011;31429;42.674;23.350;2023-10-19T06:29:54;37.45;;;30.30;;
23163;SDS011;31429;42.674;23.350;2023-10-19T06:30:55;45.07;;;33.90;;